sensor_id;sensor_type;location;lat;lon;timestamp;P1;durP1;ratioP1;P2;durP2;ratioP2
74471;SDS011;62920;53.572;10.050;2023-04-15T00:01:23;5.80;;;3.00;;
74471;SDS011;62920;53.572;10.050;2023-04-15T00:03:50;5.07;;;2.85;;
74471;SDS011;62920;53.572;10.050;2023-04-15T00:06:17;4.28;;;2.60;;
74471;SDS011;62920;53.572;10.050;2023-04-15T00:08:43;6.30;;;2.63;;
74471;SDS011;62920;53.572;10.050;2023-04-15T00:11:09;5.18;;;2.80;;
74471;SDS011;62920;53.572;10.050;2023-04-15T00:13:34;5.85;;;2.78;;
74471;SDS011;62920;53.572;10.050;2023-04-15T00:16:00;5.28;;;3.00;;
74471;SDS011;62920;53.572;10.050;2023-04-15T00:18:26;5.28;;;3.00;;
74471;SDS011;62920;53.572;10.050;2023-04-15T00:20:51;5.40;;;2.90;;
74471;SDS011;62920;53.572;10.050;2023-04-15T00:23:17;6.57;;;3.47;;
74471;SDS011;62920;53.572;10.050;2023-04-15T00:25:43;5.88;;;3.20;;
74471;SDS011;62920;53.572;10.050;2023-04-15T00:28:08;5.68;;;3.03;;
74471;SDS011;62920;53.572;10.050;2023-04-15T00:30:34;5.10;;;3.05;;
74471;SDS011;62920;53.572;10.050;2023-04-15T00:32:59;5.20;;;2.90;;
74471;SDS011;62920;53.572;10.050;2023-04-15T00:35:26;5.47;;;3.05;;
74471;SDS011;62920;53.572;10.050;2023-04-15T00:37:51;5.82;;;2.92;;
74471;SDS011;62920;53.572;10.050;2023-04-15T00:40:18;4.55;;;2.45;;
74471;SDS011;62920;53.572;10.050;2023-04-15T00:42:43;7.63;;;3.13;;
74471;SDS011;62920;53.572;10.050;2023-04-15T00:45:09;6.93;;;2.80;;
74471;SDS011;62920;53.572;10.050;2023-04-15T00:47:35;6.20;;;3.10;;
74471;SDS011;62920;53.572;10.050;2023-04-15T00:50:01;5.53;;;2.50;;
74471;SDS011;62920;53.572;10.050;2023-04-15T00:52:27;4.93;;;2.20;;
74471;SDS011;62920;53.572;10.050;2023-04-15T00:54:52;4.63;;;2.45;;
74471;SDS011;62920;53.572;10.050;2023-04-15T00:57:19;5.57;;;2.63;;
74471;SDS011;62920;53.572;10.050;2023-04-15T00:59:46;5.05;;;2.60;;
74471;SDS011;62920;53.572;10.050;2023-04-15T01:02:11;5.72;;;2.42;;
74471;SDS011;62920;53.572;10.050;2023-04-15T01:04:37;5.07;;;2.40;;
74471;SDS011;62920;53.572;10.050;2023-04-15T01:07:02;5.85;;;2.60;;
74471;SDS011;62920;53.572;10.050;2023-04-15T01:09:27;4.07;;;2.15;;
74471;SDS011;62920;53.572;10.050;2023-04-15T01:11:53;4.10;;;2.08;;
74471;SDS011;62920;53.572;10.050;2023-04-15T01:14:18;4.50;;;2.38;;
74471;SDS011;62920;53.572;10.050;2023-04-15T01:16:44;4.50;;;2.45;;
74471;SDS011;62920;53.572;10.050;2023-04-15T01:19:09;7.38;;;2.53;;
74471;SDS011;62920;53.572;10.050;2023-04-15T01:21:36;5.18;;;2.58;;
74471;SDS011;62920;53.572;10.050;2023-04-15T01:24:04;4.70;;;2.55;;
74471;SDS011;62920;53.572;10.050;2023-04-15T01:26:33;4.85;;;2.78;;
74471;SDS011;62920;53.572;10.050;2023-04-15T01:29:03;4.53;;;2.35;;
74471;SDS011;62920;53.572;10.050;2023-04-15T01:31:28;6.43;;;2.63;;
74471;SDS011;62920;53.572;10.050;2023-04-15T01:33:53;4.20;;;2.20;;
74471;SDS011;62920;53.572;10.050;2023-04-15T01:36:19;4.72;;;2.15;;
74471;SDS011;62920;53.572;10.050;2023-04-15T01:38:44;4.65;;;2.60;;
74471;SDS011;62920;53.572;10.050;2023-04-15T01:41:10;5.30;;;2.90;;
74471;SDS011;62920;53.572;10.050;2023-04-15T01:43:35;4.78;;;2.53;;
74471;SDS011;62920;53.572;10.050;2023-04-15T01:46:04;5.20;;;2.72;;
74471;SDS011;62920;53.572;10.050;2023-04-15T01:48:30;5.75;;;2.95;;
74471;SDS011;62920;53.572;10.050;2023-04-15T01:50:56;5.45;;;3.03;;
74471;SDS011;62920;53.572;10.050;2023-04-15T01:53:23;4.97;;;2.70;;
74471;SDS011;62920;53.572;10.050;2023-04-15T01:55:49;5.40;;;2.65;;
74471;SDS011;62920;53.572;10.050;2023-04-15T01:58:16;5.88;;;2.92;;
74471;SDS011;62920;53.572;10.050;2023-04-15T02:00:41;6.25;;;2.97;;
74471;SDS011;62920;53.572;10.050;2023-04-15T02:03:07;5.50;;;2.63;;
74471;SDS011;62920;53.572;10.050;2023-04-15T02:05:32;5.88;;;3.17;;
74471;SDS011;62920;53.572;10.050;2023-04-15T02:07:57;5.57;;;3.03;;
74471;SDS011;62920;53.572;10.050;2023-04-15T02:10:23;5.82;;;3.20;;
74471;SDS011;62920;53.572;10.050;2023-04-15T02:12:48;5.68;;;3.13;;
74471;SDS011;62920;53.572;10.050;2023-04-15T02:15:14;6.07;;;3.38;;
74471;SDS011;62920;53.572;10.050;2023-04-15T02:17:39;6.45;;;3.58;;
74471;SDS011;62920;53.572;10.050;2023-04-15T02:20:05;8.20;;;3.70;;
74471;SDS011;62920;53.572;10.050;2023-04-15T02:22:33;7.00;;;3.20;;
74471;SDS011;62920;53.572;10.050;2023-04-15T02:24:58;7.20;;;4.00;;
74471;SDS011;62920;53.572;10.050;2023-04-15T02:27:24;7.78;;;3.70;;
74471;SDS011;62920;53.572;10.050;2023-04-15T02:29:49;7.75;;;3.72;;
74471;SDS011;62920;53.572;10.050;2023-04-15T02:32:17;9.50;;;4.82;;
74471;SDS011;62920;53.572;10.050;2023-04-15T02:34:44;55.10;;;49.15;;
74471;SDS011;62920;53.572;10.050;2023-04-15T02:37:10;10.15;;;5.68;;
74471;SDS011;62920;53.572;10.050;2023-04-15T02:39:36;7.70;;;4.22;;
74471;SDS011;62920;53.572;10.050;2023-04-15T02:42:02;7.60;;;4.13;;
74471;SDS011;62920;53.572;10.050;2023-04-15T02:44:27;7.38;;;4.00;;
74471;SDS011;62920;53.572;10.050;2023-04-15T02:46:53;8.73;;;4.30;;
74471;SDS011;62920;53.572;10.050;2023-04-15T02:49:21;8.05;;;4.47;;
74471;SDS011;62920;53.572;10.050;2023-04-15T02:51:47;8.52;;;4.35;;
74471;SDS011;62920;53.572;10.050;2023-04-15T02:54:20;8.45;;;4.72;;
74471;SDS011;62920;53.572;10.050;2023-04-15T02:56:47;7.28;;;4.15;;
74471;SDS011;62920;53.572;10.050;2023-04-15T02:59:12;8.43;;;4.38;;
74471;SDS011;62920;53.572;10.050;2023-04-15T03:01:38;8.48;;;4.78;;
74471;SDS011;62920;53.572;10.050;2023-04-15T03:04:03;9.73;;;5.18;;
74471;SDS011;62920;53.572;10.050;2023-04-15T03:06:28;8.75;;;4.93;;
74471;SDS011;62920;53.572;10.050;2023-04-15T03:08:54;9.88;;;5.25;;
74471;SDS011;62920;53.572;10.050;2023-04-15T03:11:20;9.98;;;5.30;;
74471;SDS011;62920;53.572;10.050;2023-04-15T03:13:46;9.02;;;4.57;;
74471;SDS011;62920;53.572;10.050;2023-04-15T03:16:12;11.02;;;5.25;;
74471;SDS011;62920;53.572;10.050;2023-04-15T03:18:37;10.20;;;5.25;;
74471;SDS011;62920;53.572;10.050;2023-04-15T03:21:03;11.48;;;5.80;;
74471;SDS011;62920;53.572;10.050;2023-04-15T03:23:29;10.82;;;6.03;;
74471;SDS011;62920;53.572;10.050;2023-04-15T03:25:55;10.80;;;5.97;;
74471;SDS011;62920;53.572;10.050;2023-04-15T03:28:22;11.35;;;6.10;;
74471;SDS011;62920;53.572;10.050;2023-04-15T03:30:47;11.40;;;5.90;;
74471;SDS011;62920;53.572;10.050;2023-04-15T03:33:13;12.35;;;6.28;;
74471;SDS011;62920;53.572;10.050;2023-04-15T03:35:38;12.60;;;6.03;;
74471;SDS011;62920;53.572;10.050;2023-04-15T03:38:03;12.75;;;6.35;;
74471;SDS011;62920;53.572;10.050;2023-04-15T03:40:29;11.48;;;6.13;;
74471;SDS011;62920;53.572;10.050;2023-04-15T03:42:54;13.20;;;6.55;;
74471;SDS011;62920;53.572;10.050;2023-04-15T03:45:19;14.95;;;7.22;;
74471;SDS011;62920;53.572;10.050;2023-04-15T03:47:45;15.30;;;7.40;;
74471;SDS011;62920;53.572;10.050;2023-04-15T03:50:10;12.88;;;6.78;;
74471;SDS011;62920;53.572;10.050;2023-04-15T03:52:36;14.85;;;6.97;;
74471;SDS011;62920;53.572;10.050;2023-04-15T03:55:01;12.10;;;6.40;;
74471;SDS011;62920;53.572;10.050;2023-04-15T03:57:27;12.85;;;6.32;;
74471;SDS011;62920;53.572;10.050;2023-04-15T03:59:52;13.40;;;6.40;;
74471;SDS011;62920;53.572;10.050;2023-04-15T04:02:17;12.27;;;6.60;;
74471;SDS011;62920;53.572;10.050;2023-04-15T04:04:44;13.68;;;6.80;;
74471;SDS011;62920;53.572;10.050;2023-04-15T04:07:13;13.07;;;6.38;;
74471;SDS011;62920;53.572;10.050;2023-04-15T04:09:40;13.43;;;6.80;;
74471;SDS011;62920;53.572;10.050;2023-04-15T04:12:06;11.55;;;6.10;;
74471;SDS011;62920;53.572;10.050;2023-04-15T04:14:31;13.23;;;6.70;;
74471;SDS011;62920;53.572;10.050;2023-04-15T04:16:56;12.25;;;6.50;;
74471;SDS011;62920;53.572;10.050;2023-04-15T04:19:22;13.18;;;6.47;;
74471;SDS011;62920;53.572;10.050;2023-04-15T04:21:47;12.18;;;6.88;;
74471;SDS011;62920;53.572;10.050;2023-04-15T04:24:13;11.48;;;6.20;;
74471;SDS011;62920;53.572;10.050;2023-04-15T04:26:38;14.18;;;6.78;;
74471;SDS011;62920;53.572;10.050;2023-04-15T04:29:03;12.55;;;7.00;;
74471;SDS011;62920;53.572;10.050;2023-04-15T04:31:29;11.45;;;6.00;;
74471;SDS011;62920;53.572;10.050;2023-04-15T04:33:54;11.60;;;6.05;;
74471;SDS011;62920;53.572;10.050;2023-04-15T04:36:19;13.30;;;6.65;;
74471;SDS011;62920;53.572;10.050;2023-04-15T04:38:45;13.70;;;6.68;;
74471;SDS011;62920;53.572;10.050;2023-04-15T04:41:10;14.73;;;7.22;;
74471;SDS011;62920;53.572;10.050;2023-04-15T04:43:36;13.85;;;7.18;;
74471;SDS011;62920;53.572;10.050;2023-04-15T04:46:01;16.35;;;7.35;;
74471;SDS011;62920;53.572;10.050;2023-04-15T04:48:26;15.70;;;7.90;;
74471;SDS011;62920;53.572;10.050;2023-04-15T04:50:52;17.15;;;8.60;;
74471;SDS011;62920;53.572;10.050;2023-04-15T04:53:17;15.90;;;8.23;;
74471;SDS011;62920;53.572;10.050;2023-04-15T04:55:42;18.23;;;9.05;;
74471;SDS011;62920;53.572;10.050;2023-04-15T04:58:08;19.52;;;9.98;;
74471;SDS011;62920;53.572;10.050;2023-04-15T05:00:33;20.70;;;9.60;;
74471;SDS011;62920;53.572;10.050;2023-04-15T05:02:58;18.80;;;9.55;;
74471;SDS011;62920;53.572;10.050;2023-04-15T05:05:24;19.65;;;9.73;;
74471;SDS011;62920;53.572;10.050;2023-04-15T05:07:50;21.35;;;10.35;;
74471;SDS011;62920;53.572;10.050;2023-04-15T05:10:15;20.52;;;9.90;;
74471;SDS011;62920;53.572;10.050;2023-04-15T05:12:42;19.92;;;9.82;;
74471;SDS011;62920;53.572;10.050;2023-04-15T05:15:07;20.70;;;10.07;;
74471;SDS011;62920;53.572;10.050;2023-04-15T05:17:33;22.83;;;10.40;;
74471;SDS011;62920;53.572;10.050;2023-04-15T05:19:59;24.67;;;11.43;;
74471;SDS011;62920;53.572;10.050;2023-04-15T05:22:25;21.15;;;10.75;;
74471;SDS011;62920;53.572;10.050;2023-04-15T05:24:50;23.90;;;11.82;;
74471;SDS011;62920;53.572;10.050;2023-04-15T05:27:16;23.52;;;11.23;;
74471;SDS011;62920;53.572;10.050;2023-04-15T05:29:43;24.02;;;11.93;;
74471;SDS011;62920;53.572;10.050;2023-04-15T05:32:08;25.20;;;11.93;;
74471;SDS011;62920;53.572;10.050;2023-04-15T05:34:33;26.40;;;12.35;;
74471;SDS011;62920;53.572;10.050;2023-04-15T05:36:59;25.52;;;12.23;;
74471;SDS011;62920;53.572;10.050;2023-04-15T05:39:24;24.48;;;11.75;;
74471;SDS011;62920;53.572;10.050;2023-04-15T05:41:50;23.88;;;12.10;;
74471;SDS011;62920;53.572;10.050;2023-04-15T05:44:16;23.08;;;12.60;;
74471;SDS011;62920;53.572;10.050;2023-04-15T05:46:41;26.42;;;12.68;;
74471;SDS011;62920;53.572;10.050;2023-04-15T05:49:07;23.33;;;11.55;;
74471;SDS011;62920;53.572;10.050;2023-04-15T05:51:32;21.98;;;11.82;;
74471;SDS011;62920;53.572;10.050;2023-04-15T05:53:57;23.45;;;12.30;;
74471;SDS011;62920;53.572;10.050;2023-04-15T05:56:23;24.10;;;12.02;;
74471;SDS011;62920;53.572;10.050;2023-04-15T05:58:50;24.83;;;12.50;;
74471;SDS011;62920;53.572;10.050;2023-04-15T06:01:16;26.65;;;12.70;;
74471;SDS011;62920;53.572;10.050;2023-04-15T06:03:41;22.17;;;11.75;;
74471;SDS011;62920;53.572;10.050;2023-04-15T06:06:07;23.00;;;12.18;;
74471;SDS011;62920;53.572;10.050;2023-04-15T06:08:33;26.27;;;12.70;;
74471;SDS011;62920;53.572;10.050;2023-04-15T06:10:58;23.75;;;12.30;;
74471;SDS011;62920;53.572;10.050;2023-04-15T06:13:23;23.48;;;12.38;;
74471;SDS011;62920;53.572;10.050;2023-04-15T06:15:49;24.27;;;12.40;;
74471;SDS011;62920;53.572;10.050;2023-04-15T06:18:14;24.58;;;12.88;;
74471;SDS011;62920;53.572;10.050;2023-04-15T06:20:39;23.60;;;11.93;;
74471;SDS011;62920;53.572;10.050;2023-04-15T06:23:05;28.40;;;12.70;;
74471;SDS011;62920;53.572;10.050;2023-04-15T06:25:31;24.23;;;12.15;;
74471;SDS011;62920;53.572;10.050;2023-04-15T06:27:56;26.67;;;13.35;;
74471;SDS011;62920;53.572;10.050;2023-04-15T06:30:22;24.05;;;12.32;;
74471;SDS011;62920;53.572;10.050;2023-04-15T06:32:47;25.75;;;12.95;;
74471;SDS011;62920;53.572;10.050;2023-04-15T06:35:12;26.75;;;12.90;;
74471;SDS011;62920;53.572;10.050;2023-04-15T06:37:38;24.90;;;13.48;;
74471;SDS011;62920;53.572;10.050;2023-04-15T06:40:03;28.75;;;13.02;;
74471;SDS011;62920;53.572;10.050;2023-04-15T06:42:29;27.83;;;13.43;;
74471;SDS011;62920;53.572;10.050;2023-04-15T06:44:55;28.13;;;14.20;;
74471;SDS011;62920;53.572;10.050;2023-04-15T06:47:20;26.40;;;14.48;;
74471;SDS011;62920;53.572;10.050;2023-04-15T06:49:46;29.35;;;13.93;;
74471;SDS011;62920;53.572;10.050;2023-04-15T06:52:11;27.00;;;14.38;;
74471;SDS011;62920;53.572;10.050;2023-04-15T06:54:37;30.95;;;14.18;;
74471;SDS011;62920;53.572;10.050;2023-04-15T06:57:02;27.40;;;14.52;;
74471;SDS011;62920;53.572;10.050;2023-04-15T06:59:27;30.30;;;14.63;;
74471;SDS011;62920;53.572;10.050;2023-04-15T07:01:53;26.30;;;13.65;;
74471;SDS011;62920;53.572;10.050;2023-04-15T07:04:18;28.05;;;14.52;;
74471;SDS011;62920;53.572;10.050;2023-04-15T07:06:44;30.10;;;15.10;;
74471;SDS011;62920;53.572;10.050;2023-04-15T07:09:10;28.40;;;14.77;;
74471;SDS011;62920;53.572;10.050;2023-04-15T07:11:35;30.05;;;14.70;;
74471;SDS011;62920;53.572;10.050;2023-04-15T07:14:00;29.45;;;15.23;;
74471;SDS011;62920;53.572;10.050;2023-04-15T07:16:26;28.85;;;15.32;;
74471;SDS011;62920;53.572;10.050;2023-04-15T07:18:51;33.15;;;15.93;;
74471;SDS011;62920;53.572;10.050;2023-04-15T07:21:17;31.95;;;15.95;;
74471;SDS011;62920;53.572;10.050;2023-04-15T07:23:42;30.55;;;14.80;;
74471;SDS011;62920;53.572;10.050;2023-04-15T07:26:08;31.38;;;15.63;;
74471;SDS011;62920;53.572;10.050;2023-04-15T07:28:33;31.17;;;15.52;;
74471;SDS011;62920;53.572;10.050;2023-04-15T07:30:59;31.63;;;15.00;;
74471;SDS011;62920;53.572;10.050;2023-04-15T07:33:25;32.53;;;16.38;;
74471;SDS011;62920;53.572;10.050;2023-04-15T07:35:50;30.50;;;15.85;;
74471;SDS011;62920;53.572;10.050;2023-04-15T07:38:15;31.27;;;15.73;;
74471;SDS011;62920;53.572;10.050;2023-04-15T07:40:41;33.08;;;16.20;;
74471;SDS011;62920;53.572;10.050;2023-04-15T07:43:06;34.28;;;15.50;;
74471;SDS011;62920;53.572;10.050;2023-04-15T07:45:32;30.23;;;14.80;;
74471;SDS011;62920;53.572;10.050;2023-04-15T07:47:58;32.88;;;15.40;;
74471;SDS011;62920;53.572;10.050;2023-04-15T07:50:23;30.35;;;15.50;;
74471;SDS011;62920;53.572;10.050;2023-04-15T07:52:49;33.97;;;15.80;;
74471;SDS011;62920;53.572;10.050;2023-04-15T07:55:15;30.15;;;14.85;;
74471;SDS011;62920;53.572;10.050;2023-04-15T07:57:43;29.88;;;15.45;;
74471;SDS011;62920;53.572;10.050;2023-04-15T08:00:08;32.25;;;16.20;;
74471;SDS011;62920;53.572;10.050;2023-04-15T08:02:35;29.05;;;15.95;;
74471;SDS011;62920;53.572;10.050;2023-04-15T08:05:01;30.40;;;15.85;;
74471;SDS011;62920;53.572;10.050;2023-04-15T08:07:28;32.53;;;15.82;;
74471;SDS011;62920;53.572;10.050;2023-04-15T08:09:54;30.63;;;16.45;;
74471;SDS011;62920;53.572;10.050;2023-04-15T08:12:19;31.88;;;15.43;;
74471;SDS011;62920;53.572;10.050;2023-04-15T08:14:45;32.70;;;17.08;;
74471;SDS011;62920;53.572;10.050;2023-04-15T08:17:10;34.50;;;16.40;;
74471;SDS011;62920;53.572;10.050;2023-04-15T08:19:36;37.05;;;17.73;;
74471;SDS011;62920;53.572;10.050;2023-04-15T08:22:01;34.40;;;17.60;;
74471;SDS011;62920;53.572;10.050;2023-04-15T08:24:27;30.75;;;16.23;;
74471;SDS011;62920;53.572;10.050;2023-04-15T08:26:52;35.88;;;16.92;;
74471;SDS011;62920;53.572;10.050;2023-04-15T08:29:18;33.92;;;16.67;;
74471;SDS011;62920;53.572;10.050;2023-04-15T08:31:44;35.30;;;16.75;;
74471;SDS011;62920;53.572;10.050;2023-04-15T08:34:12;33.08;;;16.40;;
74471;SDS011;62920;53.572;10.050;2023-04-15T08:36:38;29.25;;;16.42;;
74471;SDS011;62920;53.572;10.050;2023-04-15T08:39:03;32.05;;;16.77;;
74471;SDS011;62920;53.572;10.050;2023-04-15T08:41:44;31.20;;;15.75;;
74471;SDS011;62920;53.572;10.050;2023-04-15T08:44:20;30.88;;;15.82;;
74471;SDS011;62920;53.572;10.050;2023-04-15T08:46:47;35.80;;;16.52;;
74471;SDS011;62920;53.572;10.050;2023-04-15T08:49:13;30.80;;;15.57;;
74471;SDS011;62920;53.572;10.050;2023-04-15T08:51:39;36.38;;;17.00;;
74471;SDS011;62920;53.572;10.050;2023-04-15T08:54:06;28.45;;;16.33;;
74471;SDS011;62920;53.572;10.050;2023-04-15T08:56:32;31.98;;;16.27;;
74471;SDS011;62920;53.572;10.050;2023-04-15T08:58:58;34.65;;;17.52;;
74471;SDS011;62920;53.572;10.050;2023-04-15T09:01:24;32.25;;;16.33;;
74471;SDS011;62920;53.572;10.050;2023-04-15T09:03:50;35.30;;;16.95;;
74471;SDS011;62920;53.572;10.050;2023-04-15T09:06:18;33.80;;;16.65;;
74471;SDS011;62920;53.572;10.050;2023-04-15T09:08:44;34.03;;;17.13;;
74471;SDS011;62920;53.572;10.050;2023-04-15T09:11:09;34.53;;;17.15;;
74471;SDS011;62920;53.572;10.050;2023-04-15T09:13:35;36.83;;;18.33;;
74471;SDS011;62920;53.572;10.050;2023-04-15T09:16:01;38.50;;;18.15;;
74471;SDS011;62920;53.572;10.050;2023-04-15T09:18:35;33.50;;;17.33;;
74471;SDS011;62920;53.572;10.050;2023-04-15T09:23:29;35.35;;;17.15;;
74471;SDS011;62920;53.572;10.050;2023-04-15T09:25:56;36.03;;;18.10;;
74471;SDS011;62920;53.572;10.050;2023-04-15T09:28:25;34.03;;;16.95;;
74471;SDS011;62920;53.572;10.050;2023-04-15T09:31:00;37.97;;;17.70;;
74471;SDS011;62920;53.572;10.050;2023-04-15T09:33:27;37.42;;;17.95;;
74471;SDS011;62920;53.572;10.050;2023-04-15T09:35:57;37.17;;;17.75;;
74471;SDS011;62920;53.572;10.050;2023-04-15T09:38:25;38.30;;;18.02;;
74471;SDS011;62920;53.572;10.050;2023-04-15T09:40:50;34.15;;;17.77;;
74471;SDS011;62920;53.572;10.050;2023-04-15T09:43:16;37.00;;;18.80;;
74471;SDS011;62920;53.572;10.050;2023-04-15T09:45:48;35.83;;;17.92;;
74471;SDS011;62920;53.572;10.050;2023-04-15T09:50:41;33.33;;;15.98;;
74471;SDS011;62920;53.572;10.050;2023-04-15T09:53:08;31.25;;;16.80;;
74471;SDS011;62920;53.572;10.050;2023-04-15T09:55:35;31.55;;;15.52;;
74471;SDS011;62920;53.572;10.050;2023-04-15T09:58:01;32.90;;;15.82;;
74471;SDS011;62920;53.572;10.050;2023-04-15T10:00:27;31.80;;;15.98;;
74471;SDS011;62920;53.572;10.050;2023-04-15T10:05:18;26.77;;;14.83;;
74471;SDS011;62920;53.572;10.050;2023-04-15T10:07:45;28.20;;;14.70;;
74471;SDS011;62920;53.572;10.050;2023-04-15T10:10:10;26.95;;;15.00;;
74471;SDS011;62920;53.572;10.050;2023-04-15T10:12:37;32.33;;;16.80;;
74471;SDS011;62920;53.572;10.050;2023-04-15T10:15:05;30.63;;;15.95;;
74471;SDS011;62920;53.572;10.050;2023-04-15T10:17:33;31.65;;;16.65;;
74471;SDS011;62920;53.572;10.050;2023-04-15T10:20:01;29.55;;;14.93;;
74471;SDS011;62920;53.572;10.050;2023-04-15T10:22:28;29.10;;;15.30;;
74471;SDS011;62920;53.572;10.050;2023-04-15T10:24:54;25.50;;;14.15;;
74471;SDS011;62920;53.572;10.050;2023-04-15T10:27:20;26.38;;;14.02;;
74471;SDS011;62920;53.572;10.050;2023-04-15T10:29:47;26.98;;;14.32;;
74471;SDS011;62920;53.572;10.050;2023-04-15T10:32:13;27.40;;;14.05;;
74471;SDS011;62920;53.572;10.050;2023-04-15T10:34:39;24.05;;;13.00;;
74471;SDS011;62920;53.572;10.050;2023-04-15T10:37:08;22.05;;;13.07;;
74471;SDS011;62920;53.572;10.050;2023-04-15T10:42:13;21.92;;;11.35;;
74471;SDS011;62920;53.572;10.050;2023-04-15T10:44:50;22.02;;;11.85;;
74471;SDS011;62920;53.572;10.050;2023-04-15T10:47:19;19.05;;;10.70;;
74471;SDS011;62920;53.572;10.050;2023-04-15T10:52:25;17.13;;;10.40;;
74471;SDS011;62920;53.572;10.050;2023-04-15T10:55:02;15.02;;;9.35;;
74471;SDS011;62920;53.572;10.050;2023-04-15T10:57:37;19.25;;;9.68;;
74471;SDS011;62920;53.572;10.050;2023-04-15T11:00:16;15.10;;;9.18;;
74471;SDS011;62920;53.572;10.050;2023-04-15T11:05:19;15.73;;;8.75;;
74471;SDS011;62920;53.572;10.050;2023-04-15T11:12:45;13.50;;;8.13;;
74471;SDS011;62920;53.572;10.050;2023-04-15T11:15:24;17.05;;;7.82;;
74471;SDS011;62920;53.572;10.050;2023-04-15T11:17:51;13.15;;;7.28;;
74471;SDS011;62920;53.572;10.050;2023-04-15T11:20:16;12.10;;;7.85;;
74471;SDS011;62920;53.572;10.050;2023-04-15T11:23:00;14.52;;;8.35;;
74471;SDS011;62920;53.572;10.050;2023-04-15T11:25:29;15.15;;;7.60;;
74471;SDS011;62920;53.572;10.050;2023-04-15T11:27:57;14.30;;;8.90;;
74471;SDS011;62920;53.572;10.050;2023-04-15T11:30:24;15.00;;;8.68;;
74471;SDS011;62920;53.572;10.050;2023-04-15T11:32:53;15.40;;;8.88;;
74471;SDS011;62920;53.572;10.050;2023-04-15T11:35:21;21.13;;;8.35;;
74471;SDS011;62920;53.572;10.050;2023-04-15T11:37:47;14.52;;;8.68;;
74471;SDS011;62920;53.572;10.050;2023-04-15T11:40:16;15.98;;;9.40;;
74471;SDS011;62920;53.572;10.050;2023-04-15T11:42:43;13.10;;;9.15;;
74471;SDS011;62920;53.572;10.050;2023-04-15T11:45:10;17.80;;;9.98;;
74471;SDS011;62920;53.572;10.050;2023-04-15T11:47:37;18.10;;;9.50;;
74471;SDS011;62920;53.572;10.050;2023-04-15T11:50:24;13.73;;;8.13;;
74471;SDS011;62920;53.572;10.050;2023-04-15T11:52:52;18.00;;;9.43;;
74471;SDS011;62920;53.572;10.050;2023-04-15T11:55:25;12.70;;;8.25;;
74471;SDS011;62920;53.572;10.050;2023-04-15T11:58:11;12.25;;;7.78;;
74471;SDS011;62920;53.572;10.050;2023-04-15T12:00:38;13.40;;;8.20;;
74471;SDS011;62920;53.572;10.050;2023-04-15T12:03:16;11.48;;;7.47;;
74471;SDS011;62920;53.572;10.050;2023-04-15T12:08:48;12.40;;;6.85;;
74471;SDS011;62920;53.572;10.050;2023-04-15T12:11:29;13.00;;;7.45;;
74471;SDS011;62920;53.572;10.050;2023-04-15T12:16:49;11.82;;;7.50;;
74471;SDS011;62920;53.572;10.050;2023-04-15T12:19:25;15.93;;;8.02;;
74471;SDS011;62920;53.572;10.050;2023-04-15T12:21:55;15.65;;;8.13;;
74471;SDS011;62920;53.572;10.050;2023-04-15T12:24:24;13.20;;;8.30;;
74471;SDS011;62920;53.572;10.050;2023-04-15T12:26:51;15.85;;;8.63;;
74471;SDS011;62920;53.572;10.050;2023-04-15T12:29:17;15.55;;;8.20;;
74471;SDS011;62920;53.572;10.050;2023-04-15T12:31:47;16.48;;;8.05;;
74471;SDS011;62920;53.572;10.050;2023-04-15T12:34:39;13.07;;;7.72;;
74471;SDS011;62920;53.572;10.050;2023-04-15T12:37:09;14.32;;;7.93;;
74471;SDS011;62920;53.572;10.050;2023-04-15T12:39:37;12.82;;;7.90;;
74471;SDS011;62920;53.572;10.050;2023-04-15T12:42:04;10.32;;;6.75;;
74471;SDS011;62920;53.572;10.050;2023-04-15T12:44:30;15.68;;;8.23;;
74471;SDS011;62920;53.572;10.050;2023-04-15T12:46:56;15.23;;;8.00;;
74471;SDS011;62920;53.572;10.050;2023-04-15T12:49:21;13.73;;;7.88;;
74471;SDS011;62920;53.572;10.050;2023-04-15T12:54:15;12.18;;;7.80;;
74471;SDS011;62920;53.572;10.050;2023-04-15T12:56:41;14.27;;;7.63;;
74471;SDS011;62920;53.572;10.050;2023-04-15T12:59:07;14.32;;;8.30;;
74471;SDS011;62920;53.572;10.050;2023-04-15T13:01:32;12.80;;;8.13;;
74471;SDS011;62920;53.572;10.050;2023-04-15T13:03:58;15.32;;;8.70;;
74471;SDS011;62920;53.572;10.050;2023-04-15T13:06:23;15.02;;;7.93;;
74471;SDS011;62920;53.572;10.050;2023-04-15T13:08:48;12.25;;;7.75;;
74471;SDS011;62920;53.572;10.050;2023-04-15T13:11:14;12.95;;;7.55;;
74471;SDS011;62920;53.572;10.050;2023-04-15T13:13:41;15.20;;;8.18;;
74471;SDS011;62920;53.572;10.050;2023-04-15T13:16:07;13.35;;;7.63;;
74471;SDS011;62920;53.572;10.050;2023-04-15T13:18:32;13.65;;;7.22;;
74471;SDS011;62920;53.572;10.050;2023-04-15T13:20:58;13.40;;;7.82;;
74471;SDS011;62920;53.572;10.050;2023-04-15T13:23:25;13.07;;;7.82;;
74471;SDS011;62920;53.572;10.050;2023-04-15T13:25:50;11.25;;;7.00;;
74471;SDS011;62920;53.572;10.050;2023-04-15T13:28:16;12.40;;;6.93;;
74471;SDS011;62920;53.572;10.050;2023-04-15T13:30:41;12.40;;;7.47;;
74471;SDS011;62920;53.572;10.050;2023-04-15T13:33:08;13.07;;;7.72;;
74471;SDS011;62920;53.572;10.050;2023-04-15T13:35:33;14.00;;;7.55;;
74471;SDS011;62920;53.572;10.050;2023-04-15T13:37:59;13.20;;;7.13;;
74471;SDS011;62920;53.572;10.050;2023-04-15T13:40:25;12.13;;;7.50;;
74471;SDS011;62920;53.572;10.050;2023-04-15T13:42:50;12.05;;;6.07;;
74471;SDS011;62920;53.572;10.050;2023-04-15T13:45:17;11.10;;;7.15;;
74471;SDS011;62920;53.572;10.050;2023-04-15T13:47:43;13.32;;;7.63;;
74471;SDS011;62920;53.572;10.050;2023-04-15T13:50:08;11.20;;;6.88;;
74471;SDS011;62920;53.572;10.050;2023-04-15T13:52:34;13.07;;;7.35;;
74471;SDS011;62920;53.572;10.050;2023-04-15T13:54:59;14.65;;;6.75;;
74471;SDS011;62920;53.572;10.050;2023-04-15T13:57:25;9.82;;;6.20;;
74471;SDS011;62920;53.572;10.050;2023-04-15T13:59:50;11.85;;;5.82;;
74471;SDS011;62920;53.572;10.050;2023-04-15T14:02:16;11.18;;;6.18;;
74471;SDS011;62920;53.572;10.050;2023-04-15T14:04:41;11.23;;;6.13;;
74471;SDS011;62920;53.572;10.050;2023-04-15T14:07:07;9.05;;;6.18;;
74471;SDS011;62920;53.572;10.050;2023-04-15T14:09:32;10.25;;;5.80;;
74471;SDS011;62920;53.572;10.050;2023-04-15T14:14:25;8.48;;;5.68;;
74471;SDS011;62920;53.572;10.050;2023-04-15T14:16:51;9.93;;;6.63;;
74471;SDS011;62920;53.572;10.050;2023-04-15T14:19:16;9.43;;;6.05;;
74471;SDS011;62920;53.572;10.050;2023-04-15T14:21:42;12.38;;;6.88;;
74471;SDS011;62920;53.572;10.050;2023-04-15T14:24:07;13.90;;;7.30;;
74471;SDS011;62920;53.572;10.050;2023-04-15T14:26:32;11.57;;;7.13;;
74471;SDS011;62920;53.572;10.050;2023-04-15T14:28:58;12.57;;;7.53;;
74471;SDS011;62920;53.572;10.050;2023-04-15T14:31:23;9.57;;;6.05;;
74471;SDS011;62920;53.572;10.050;2023-04-15T14:33:49;10.40;;;5.90;;
74471;SDS011;62920;53.572;10.050;2023-04-15T14:36:14;11.90;;;6.72;;
74471;SDS011;62920;53.572;10.050;2023-04-15T14:38:40;9.45;;;6.07;;
74471;SDS011;62920;53.572;10.050;2023-04-15T14:41:05;11.45;;;5.95;;
74471;SDS011;62920;53.572;10.050;2023-04-15T14:43:32;9.02;;;5.85;;
74471;SDS011;62920;53.572;10.050;2023-04-15T14:45:57;11.50;;;6.57;;